Terminal Aerodrome Forecast
Issued by NWS Memphis, TN

Home | Current Version | Previous Version | Text Only | Print | Product List | Glossary On
Versions: 1 2 3 4 5 6 7 8 9 10 11 12 13 14 15 16 17 18 19 20 21 22 23 24 25 26 27 28 29 30
674
FTUS44 KMEG 240523
TAFMEM
TAF
KMEM 240523Z 2406/2506 VRB05KT P6SM VCSH SCT060 OVC100
     FM241200 23005KT P6SM SCT015 BKN080
     FM241500 22005KT P6SM SCT040 BKN250
     FM242000 22005KT P6SM VCTS SCT045CB
     FM250000 18005KT P6SM FEW050 SCT250=

USA.gov is the U.S. government's official web portal to all federal, state and local government web resources and services.